Latest Coastal Weather Observations for Point Stuart

IDD60701

Issued at 8:35 pm CST Saturday 25 October 2014 (issued every 10 minutes, with the page automatically refreshed every 10 minutes)

About coastal observations | Map of coastal stations | Coastal observations for NT | Marine services | Other Formats
Station Details ID: 014254 Name: POINT STUART Lat: -12.24 Lon: 131.88 Height: 1.0 m
Data from the previous 72 hours. | See also: Recent months for locations in Northern Territory
Date/Time
CST
Temp

°C
Wind Pressure Rain
since 9am
mm
Weather Cloud Vis
km
Sea
Height
m
Swell
Dir
 
Speed
knots
Gust
knots
hPa Trend Height
m
Period
s
Dir
25/08:30pm 28.1 NE 11 17 1012.2 - 0.0 - - - - - - -
25/08:00pm 28.2 NE 13 20 1012.0 - 0.0 - - - - - - -
25/07:30pm 28.3 NNE 10 18 1011.7 - 0.0 - - - - - - -
25/07:00pm 28.7 NNE 10 15 1011.5 - 0.0 - - - - - - -
25/06:30pm 29.2 NNE 9 15 1011.3 - 0.0 - - - - - - -
25/06:00pm 29.9 N 9 15 1011.0 - 0.0 - - - - - - -
25/05:30pm 30.6 N 9 12 1010.7 - 0.0 - - - - - - -
25/05:00pm 31.0 N 9 13 1010.3 - 0.0 - - - - - - -
25/04:30pm 32.4 N 8 13 1010.4 - 0.0 - - - - - - -
25/04:00pm 32.6 N 8 13 1010.5 - 0.0 - - - - - - -
25/03:30pm 32.2 NNW 9 14 1010.7 - 0.0 - - - - - - -
25/03:00pm 32.5 N 8 15 1010.9 - 0.0 - - - - - - -
25/02:30pm 33.7 NNW 9 14 1011.2 - 0.0 - - - - - - -
25/02:00pm 33.0 N 9 16 1011.5 - 0.0 - - - - - - -
25/01:30pm 32.6 N 8 16 1012.1 - 0.0 - - - - - - -
25/01:00pm 32.9 NNE 8 13 1012.6 - 0.0 - - - - - - -
25/12:30pm 33.5 NE 10 16 1013.0 - 0.0 - - - - - - -
25/12:00pm 33.8 NNE 8 14 1013.4 - 0.0 - - - - - - -
25/11:30am 33.1 NE 8 11 1013.9 - 0.0 - - - - - - -
25/11:00am 32.4 ENE 9 14 1014.3 - 0.0 - - - - - - -
25/10:30am 31.9 ENE 9 13 1014.6 - 0.0 - - - - - - -
25/10:00am 30.6 ENE 8 12 1015.1 - 0.0 - - - - - - -
25/09:30am 30.2 E 8 12 1015.3 - 0.0 - - - - - - -
25/09:00am 30.0 ENE 7 12 1015.3 - 0.0 - - - - - - -
25/08:30am 28.9 ENE 6 11 1015.3 - 0.0 - - - - - - -
25/08:00am 28.4 NE 6 10 1015.1 - 0.0 - - - - - - -
25/07:30am 25.9 CALM 0 0 1015.1 - 0.0 - - - - - - -
25/07:00am 23.7 S 3 5 1014.8 - 0.0 - - - - - - -
25/06:30am 22.5 CALM 0 5 1014.4 - 0.0 - - - - - - -
25/06:00am 22.3 CALM 0 0 1014.0 - 0.0 - - - - - - -
25/05:30am 22.9 SE 1 3 1013.7 - 0.0 - - - - - - -
25/05:00am 23.0 SSE 3 4 1013.3 - 0.0 - - - - - - -
25/04:30am 24.4 S 2 4 1013.0 - 0.0 - - - - - - -
25/04:00am 25.3 SE 6 7 1012.7 - 0.0 - - - - - - -
25/03:30am 26.9 ENE 7 11 1012.6 - 0.0 - - - - - - -
25/03:00am 26.5 NE 5 7 1012.5 - 0.0 - - - - - - -
25/02:30am 26.9 NE 7 11 1012.8 - 0.0 - - - - - - -
25/02:00am 27.1 NE 8 13 1013.3 - 0.0 - - - - - - -
25/01:30am 27.3 ENE 8 11 1013.6 - 0.0 - - - - - - -
25/01:00am 26.5 NE 5 7 1013.6 - 0.0 - - - - - - -
25/12:30am 26.5 NNE 4 6 1013.7 - 0.0 - - - - - - -
25/12:00am 26.2 NE 5 7 1013.6 - 0.0 - - - - - - -
 
Date/Time
CST
Temp

°C
Wind Pressure Rain
since 9am
mm
Weather Cloud Vis
km
Sea
Height
m
Swell
Dir
 
Speed
knots
Gust
knots
hPa Trend Height
m
Period
s
Dir
24/11:30pm 26.9 NNE 5 7 1013.4 - 0.0 - - - - - - -
24/11:00pm 27.1 NNE 5 8 1013.4 - 0.0 - - - - - - -
24/10:30pm 27.2 N 4 7 1013.4 - 0.0 - - - - - - -
24/10:00pm 27.5 NNE 7 11 1012.8 - 0.0 - - - - - - -
24/09:30pm 27.8 NE 10 15 1012.3 - 0.0 - - - - - - -
24/09:00pm 28.1 NNE 9 17 1011.7 - 0.0 - - - - - - -
24/08:30pm 28.3 NNE 9 16 1011.4 - 0.0 - - - - - - -
24/08:00pm 28.6 NNE 10 16 1011.0 - 0.0 - - - - - - -
24/07:30pm 29.1 NNE 10 15 1010.7 - 0.0 - - - - - - -
24/07:00pm 29.3 NNE 9 16 1010.3 - 0.0 - - - - - - -
24/06:30pm 29.6 NNE 10 16 1010.0 - 0.0 - - - - - - -
24/06:00pm 29.9 N 10 16 1009.8 - 0.0 - - - - - - -
24/05:30pm 30.4 NNE 10 18 1009.4 - 0.0 - - - - - - -
24/05:00pm 30.9 N 11 20 1009.3 - 0.0 - - - - - - -
24/04:30pm 31.6 N 10 16 1009.3 - 0.0 - - - - - - -
24/04:00pm 31.5 N 11 17 1009.5 - 0.0 - - - - - - -
24/03:30pm 32.4 N 10 16 1009.5 - 0.0 - - - - - - -
24/03:00pm 32.4 N 10 16 1009.7 - 0.0 - - - - - - -
24/02:30pm 33.1 N 9 15 1009.9 - 0.0 - - - - - - -
24/02:00pm 33.2 N 9 16 1010.3 - 0.0 - - - - - - -
24/01:30pm 32.3 N 8 13 1010.8 - 0.0 - - - - - - -
24/01:00pm 32.0 N 10 15 1011.3 - 0.0 - - - - - - -
24/12:30pm 32.5 NNE 9 16 1012.1 - 0.0 - - - - - - -
24/12:00pm 32.1 NNE 10 16 1012.6 - 0.0 - - - - - - -
24/11:30am 31.1 NNE 10 15 1013.0 - 0.0 - - - - - - -
24/11:00am 30.9 NE 9 12 1013.5 - 0.0 - - - - - - -
24/10:30am 31.4 NE 9 14 1013.8 - 0.0 - - - - - - -
24/10:00am 31.2 NE 10 13 1014.3 - 0.0 - - - - - - -
24/09:30am 30.9 E 8 12 1014.6 - 0.0 - - - - - - -
24/09:00am 29.4 E 7 10 1014.8 - 0.0 - - - - - - -
24/08:30am 29.1 SE 6 9 1014.7 - 0.0 - - - - - - -
24/08:00am 27.4 SSE 8 9 1014.4 - 0.0 - - - - - - -
24/07:30am 26.1 SE 5 6 1013.8 - 0.0 - - - - - - -
24/07:00am 23.9 SSE 4 5 1013.4 - 0.0 - - - - - - -
24/06:30am 22.3 S 2 4 1013.4 - 0.0 - - - - - - -
24/06:00am 22.8 SE 3 4 1012.9 - 0.0 - - - - - - -
24/05:30am 22.7 CALM 0 0 1012.8 - 0.0 - - - - - - -
24/05:00am 23.0 SSE 2 4 1012.6 - 0.0 - - - - - - -
24/04:30am 23.1 SSW 3 4 1012.4 - 0.0 - - - - - - -
24/04:00am 23.3 S 4 5 1012.4 - 0.0 - - - - - - -
24/03:30am 24.1 NE 2 4 1012.3 - 0.0 - - - - - - -
24/03:00am 25.7 NNE 4 5 1012.2 - 0.0 - - - - - - -
24/02:30am 26.1 NNE 5 7 1012.7 - 0.0 - - - - - - -
24/02:00am 26.6 NNE 5 7 1013.1 - 0.0 - - - - - - -
24/01:30am 27.1 NE 7 11 1013.5 - 0.0 - - - - - - -
24/01:00am 26.6 NE 5 8 1013.7 - 0.0 - - - - - - -
24/12:30am 26.4 NE 5 7 1013.7 - 0.0 - - - - - - -
24/12:00am 26.8 NE 6 8 1013.9 - 0.0 - - - - - - -
 
Date/Time
CST
Temp

°C
Wind Pressure Rain
since 9am
mm
Weather Cloud Vis
km
Sea
Height
m
Swell
Dir
 
Speed
knots
Gust
knots
hPa Trend Height
m
Period
s
Dir
23/11:30pm 27.2 NNE 7 9 1013.9 - 0.0 - - - - - - -
23/11:00pm 27.3 NE 8 12 1013.8 - 0.0 - - - - - - -
23/10:30pm 27.8 NNE 8 13 1013.5 - 0.0 - - - - - - -
23/10:00pm 27.9 NNE 10 15 1012.7 - 0.0 - - - - - - -
23/09:30pm 28.4 NE 11 16 1012.2 - 0.0 - - - - - - -
23/09:00pm 28.6 NNE 8 13 1011.8 - 0.0 - - - - - - -
23/08:30pm 28.7 NNE 8 13 1011.5 - 0.0 - - - - - - -
23/08:00pm 28.7 NNE 7 13 1011.2 - 0.0 - - - - - - -
23/07:30pm 28.4 N 6 10 1010.9 - 0.0 - - - - - - -
23/07:00pm 28.6 N 7 12 1010.6 - 0.0 - - - - - - -
23/06:30pm 29.0 N 8 15 1010.1 - 0.0 - - - - - - -
23/06:00pm 30.4 NNE 8 14 1009.5 - 0.0 - - - - - - -
23/05:30pm 31.0 N 9 14 1009.3 - 0.0 - - - - - - -
23/05:00pm 31.5 N 10 15 1009.0 - 0.0 - - - - - - -
23/04:30pm 32.0 N 9 15 1008.8 - 0.0 - - - - - - -
23/04:00pm 32.4 N 9 15 1009.0 - 0.0 - - - - - - -
23/03:30pm 33.1 N 8 13 1009.4 - 0.0 - - - - - - -
23/03:00pm 32.7 N 9 14 1009.6 - 0.0 - - - - - - -
23/02:30pm 33.1 N 8 14 1009.9 - 0.0 - - - - - - -
23/02:00pm 32.8 NNW 9 14 1010.5 - 0.0 - - - - - - -
23/01:30pm 32.8 N 8 13 1011.0 - 0.0 - - - - - - -
23/01:00pm 32.6 N 9 14 1011.6 - 0.0 - - - - - - -
23/12:30pm 32.2 N 8 14 1012.2 - 0.0 - - - - - - -
23/12:00pm 31.6 NNE 8 12 1012.6 - 0.0 - - - - - - -
23/11:30am 32.0 NE 8 14 1013.1 - 0.0 - - - - - - -
23/11:00am 31.8 NE 8 13 1013.5 - 0.0 - - - - - - -
23/10:00am 30.0 NE 8 13 1014.4 - 0.0 - - - - - - -
23/09:30am 29.7 E 8 13 1014.4 - 0.0 - - - - - - -
23/09:00am 29.4 E 8 11 1014.6 - 0.0 - - - - - - -
23/08:30am 29.5 E 9 12 1014.6 - 0.0 - - - - - - -
23/08:00am 28.5 E 10 12 1014.5 - 0.0 - - - - - - -
23/07:30am 26.4 ESE 6 7 1014.1 - 0.0 - - - - - - -
23/07:00am 24.9 SE 6 7 1013.7 - 0.0 - - - - - - -
23/06:30am 23.7 SE 5 6 1013.5 - 0.0 - - - - - - -
23/06:00am 24.1 SE 5 7 1013.2 - 0.0 - - - - - - -
23/05:30am 24.6 ENE 2 4 1012.8 - 0.0 - - - - - - -
23/05:00am 25.2 NE 4 5 1012.4 - 0.0 - - - - - - -
23/04:30am 25.8 NNE 4 6 1012.3 - 0.0 - - - - - - -
23/04:00am 26.4 NNE 5 9 1012.3 - 0.0 - - - - - - -
23/03:30am 26.2 NE 6 10 1012.3 - 0.0 - - - - - - -
23/03:00am 26.2 NNE 5 7 1012.2 - 0.0 - - - - - - -
23/02:30am 26.5 NE 6 9 1012.7 - 0.0 - - - - - - -
23/02:00am 27.0 NE 6 8 1013.1 - 0.0 - - - - - - -
23/01:30am 26.7 NE 6 8 1013.3 - 0.0 - - - - - - -
23/01:00am 26.2 NE 4 7 1013.6 - 0.0 - - - - - - -
23/12:30am 26.4 NNE 3 5 1013.8 - 0.0 - - - - - - -
23/12:00am 26.7 NE 5 7 1013.9 - 0.0 - - - - - - -
 
Date/Time
CST
Temp

°C
Wind Pressure Rain
since 9am
mm
Weather Cloud Vis
km
Sea
Height
m
Swell
Dir
 
Speed
knots
Gust
knots
hPa Trend Height
m
Period
s
Dir
22/11:30pm 27.1 NNE 5 8 1014.0 - 0.0 - - - - - - -
22/11:00pm 27.4 NNE 5 8 1013.7 - 0.0 - - - - - - -
22/10:30pm 27.6 NNE 6 9 1013.7 - 0.0 - - - - - - -
22/10:00pm 27.9 NNE 8 13 1013.0 - 0.0 - - - - - - -
22/09:30pm 28.1 NNE 9 15 1012.7 - 0.0 - - - - - - -
22/09:00pm 28.4 NNE 9 15 1012.3 - 0.0 - - - - - - -

Other Formats:

Comma delimited format used in spreadsheet applications
http://www.bom.gov.au/fwo/IDD60701/IDD60701.94127.axf

JavaScript Object Notation format (JSON) in row-major order
http://www.bom.gov.au/fwo/IDD60701/IDD60701.94127.json